Sunnyside, Nevada
Current Conditions -  °F | °C
As of 9:53 PM on Friday 19 Dec 2014 (Local Time) from KELY Reporting Station
Clear Clear  
Wind Chill: 27°   Ceiling: Unl
Heat Index: 27°   Visibility: 10mi
Dew Point: 25°   Wind: 3mph
Humidity: 92%   Direction: 80°E
Pressure: 30.15"   Gusts: NA
Location:  38.42°N, 115.02°W
Report Text: KELY 200553Z AUTO 08003KT 10SM CLR M03/M04 A3015 RMK AO2 SLP219 T10281039 10039 21028 51005
Loading
Personal Weather Stations






























Interactive Weather Map New forecast layout! Learn more

10-Day Weather Forecast

Advertisements
Track Severe Weather on mobile